Time;durP1;ratioP1;P1;durP2;ratioP2;P2;SDS_P1;SDS_P2;PMS_P1;PMS_P2;Temp;Humidity;BMP_temperature;BMP_pressure;BME280_temperature;BME280_humidity;BME280_pressure;Samples;Min_cycle;Max_cycle;Signal;HPM_P1;HPM_P2
2023/07/24 00:01:56;;;;;;;0.70;0.60;;;17.70;99.90;;;;;;5095842;28;20464;-71
2023/07/24 00:04:22;;;;;;;0.30;0.30;;;17.70;99.90;;;;;;5095943;28;20475;-72
2023/07/24 00:06:47;;;;;;;0.63;0.63;;;17.60;99.90;;;;;;5096338;28;20417;-71
2023/07/24 00:09:13;;;;;;;0.67;0.60;;;17.60;99.90;;;;;;5095150;28;20472;-72
2023/07/24 00:11:38;;;;;;;0.60;0.60;;;17.60;99.90;;;;;;5094262;28;20032;-72
2023/07/24 00:14:04;;;;;;;0.33;0.33;;;17.50;99.90;;;;;;5095694;28;20098;-72
2023/07/24 00:16:30;;;;;;;0.30;0.30;;;17.50;99.90;;;;;;5095300;28;20097;-71
2023/07/24 00:18:55;;;;;;;0.57;0.57;;;17.50;99.90;;;;;;5095242;28;20423;-72
2023/07/24 00:21:21;;;;;;;0.30;0.30;;;17.50;99.90;;;;;;5095551;28;20043;-70
2023/07/24 00:23:47;;;;;;;0.80;0.80;;;17.40;99.90;;;;;;5095264;28;20467;-71
2023/07/24 00:26:12;;;;;;;3.27;0.60;;;17.40;99.90;;;;;;5094709;28;20036;-72
2023/07/24 00:28:38;;;;;;;0.30;0.30;;;17.40;99.90;;;;;;5095431;28;20122;-71
2023/07/24 00:31:03;;;;;;;0.40;0.40;;;17.30;99.90;;;;;;5095164;28;20119;-72
2023/07/24 00:33:29;;;;;;;0.70;0.70;;;17.30;99.90;;;;;;5095419;28;20044;-72
2023/07/24 00:35:58;;;;;;;0.60;0.60;;;17.30;99.90;;;;;;5095337;28;20536;-72
2023/07/24 00:38:23;;;;;;;0.70;0.68;;;17.30;99.90;;;;;;5094988;28;20036;-71
2023/07/24 00:40:49;;;;;;;0.40;0.40;;;17.20;99.90;;;;;;5094960;28;20039;-71
2023/07/24 00:43:16;;;;;;;0.35;0.35;;;17.20;99.90;;;;;;5095143;28;20046;-71
2023/07/24 00:45:42;;;;;;;0.30;0.30;;;17.20;99.90;;;;;;5095085;28;20086;-72
2023/07/24 00:48:08;;;;;;;0.40;0.40;;;17.20;99.90;;;;;;5094445;28;20040;-71
2023/07/24 00:50:36;;;;;;;0.67;0.53;;;17.20;99.90;;;;;;5095244;28;20036;-71
2023/07/24 00:53:02;;;;;;;0.40;0.40;;;17.10;99.90;;;;;;5094733;28;20039;-71
2023/07/24 00:55:27;;;;;;;0.52;0.52;;;17.10;99.90;;;;;;5094660;28;20039;-71
2023/07/24 00:57:54;;;;;;;0.63;0.63;;;17.10;99.90;;;;;;5094385;28;20464;-70
2023/07/24 01:00:19;;;;;;;0.30;0.30;;;17.00;99.90;;;;;;5094569;28;20051;-71
2023/07/24 01:02:45;;;;;;;1.17;0.37;;;17.00;99.90;;;;;;5094507;28;20368;-71
2023/07/24 01:05:14;;;;;;;0.30;0.30;;;16.90;99.90;;;;;;5093279;28;20036;-71
2023/07/24 01:07:40;;;;;;;0.35;0.35;;;16.90;99.90;;;;;;5094369;28;20043;-72
2023/07/24 01:10:06;;;;;;;0.70;0.70;;;16.90;99.90;;;;;;5094364;28;20129;-72
2023/07/24 01:13:10;;;;;;;0.40;0.40;;;16.90;99.90;;;;;;5094574;28;20036;-72
2023/07/24 01:15:44;;;;;;;0.30;0.30;;;16.90;99.90;;;;;;5094024;28;20082;-71
2023/07/24 01:18:12;;;;;;;0.40;0.40;;;16.80;99.90;;;;;;5094053;28;20131;-71
2023/07/24 01:20:45;;;;;;;0.30;0.30;;;16.80;99.90;;;;;;5094228;28;20040;-71
2023/07/24 01:23:34;;;;;;;0.68;0.68;;;16.80;99.90;;;;;;5094429;28;20051;-72
2023/07/24 01:26:04;;;;;;;0.40;0.40;;;16.80;99.90;;;;;;5093675;28;20549;-72
2023/07/24 01:28:30;;;;;;;0.95;0.65;;;16.70;99.90;;;;;;5094703;28;20044;-72
2023/07/24 01:30:57;;;;;;;0.30;0.30;;;16.80;99.90;;;;;;5093992;28;20040;-71
2023/07/24 01:33:24;;;;;;;0.30;0.30;;;16.70;99.90;;;;;;5093980;28;20464;-71
2023/07/24 01:35:55;;;;;;;0.50;0.50;;;16.70;99.90;;;;;;5093566;28;20048;-71
2023/07/24 01:38:21;;;;;;;0.50;0.50;;;16.60;99.90;;;;;;5093990;28;20464;-70
2023/07/24 01:40:48;;;;;;;0.60;0.60;;;16.70;99.90;;;;;;5093941;28;20075;-72
2023/07/24 01:43:14;;;;;;;0.30;0.30;;;16.70;99.90;;;;;;5093931;28;20067;-71
2023/07/24 01:45:40;;;;;;;1.67;0.40;;;16.60;99.90;;;;;;5093775;28;20039;-71
2023/07/24 01:48:06;;;;;;;0.37;0.37;;;16.60;99.90;;;;;;5093869;28;20089;-71
2023/07/24 01:50:32;;;;;;;0.67;0.67;;;16.60;99.90;;;;;;5093897;28;20040;-71
2023/07/24 01:52:58;;;;;;;0.50;0.50;;;16.60;99.90;;;;;;5093658;28;20043;-72
2023/07/24 01:55:23;;;;;;;0.40;0.40;;;16.50;99.90;;;;;;5093710;28;20048;-72
2023/07/24 01:57:49;;;;;;;0.30;0.30;;;16.60;99.90;;;;;;5092565;28;20428;-70
2023/07/24 02:00:15;;;;;;;0.87;0.57;;;16.60;99.90;;;;;;5093793;28;20118;-71
2023/07/24 02:02:40;;;;;;;0.53;0.53;;;16.50;99.90;;;;;;5093528;28;20044;-71
2023/07/24 02:05:06;;;;;;;0.40;0.40;;;16.50;99.90;;;;;;5093868;28;20367;-71
2023/07/24 02:07:32;;;;;;;0.20;0.20;;;16.50;99.90;;;;;;5093631;28;20051;-72
2023/07/24 02:09:57;;;;;;;0.53;0.53;;;16.40;99.90;;;;;;5093543;28;20079;-70
2023/07/24 02:12:23;;;;;;;0.30;0.30;;;16.50;99.90;;;;;;5093474;28;20038;-72
2023/07/24 02:14:51;;;;;;;0.50;0.50;;;16.40;99.90;;;;;;5093609;28;20044;-70
2023/07/24 02:17:17;;;;;;;0.40;0.40;;;16.40;99.90;;;;;;5093674;28;20380;-72
2023/07/24 02:19:43;;;;;;;0.30;0.30;;;16.30;99.90;;;;;;5093919;28;20127;-71
2023/07/24 02:22:09;;;;;;;1.07;0.70;;;16.40;99.90;;;;;;5093468;28;20085;-70
2023/07/24 02:24:35;;;;;;;0.30;0.30;;;16.30;99.90;;;;;;5093604;28;20036;-71
2023/07/24 02:27:01;;;;;;;0.30;0.30;;;16.30;99.90;;;;;;5093748;28;20422;-71
2023/07/24 02:29:27;;;;;;;0.40;0.40;;;16.30;99.90;;;;;;5093433;28;20044;-71
2023/07/24 02:31:54;;;;;;;0.43;0.43;;;16.30;99.90;;;;;;5093478;28;20377;-71
2023/07/24 02:34:24;;;;;;;0.38;0.38;;;16.30;99.90;;;;;;5093364;28;20036;-70
2023/07/24 02:36:50;;;;;;;0.30;0.30;;;16.30;99.90;;;;;;5093347;28;20043;-71
2023/07/24 02:39:15;;;;;;;0.60;0.60;;;16.30;99.90;;;;;;5093361;28;20039;-72
2023/07/24 02:41:41;;;;;;;0.50;0.50;;;16.30;99.90;;;;;;5093327;28;20043;-71
2023/07/24 02:44:06;;;;;;;0.33;0.33;;;16.30;99.90;;;;;;5093382;28;20127;-70
2023/07/24 02:46:32;;;;;;;0.40;0.40;;;16.30;99.90;;;;;;5093335;28;20032;-71
2023/07/24 02:48:58;;;;;;;0.30;0.30;;;16.30;99.90;;;;;;5095848;28;20472;-72
2023/07/24 02:51:23;;;;;;;0.30;0.30;;;16.30;99.90;;;;;;5096931;28;20078;-71
2023/07/24 02:53:49;;;;;;;0.20;0.20;;;16.30;99.90;;;;;;5096748;28;20122;-72
2023/07/24 02:56:15;;;;;;;0.87;0.67;;;16.30;99.90;;;;;;5097410;28;20047;-72
2023/07/24 02:58:40;;;;;;;0.67;0.67;;;16.30;99.90;;;;;;5096899;28;20038;-71
2023/07/24 03:01:07;;;;;;;0.40;0.40;;;16.30;99.90;;;;;;5096857;28;20044;-71
2023/07/24 03:03:33;;;;;;;0.35;0.35;;;16.30;99.90;;;;;;5096873;28;20079;-71
2023/07/24 03:05:59;;;;;;;0.40;0.40;;;16.40;99.90;;;;;;5096845;28;20044;-70
2023/07/24 03:08:25;;;;;;;0.27;0.27;;;16.40;99.90;;;;;;5096333;28;20121;-72
2023/07/24 03:10:50;;;;;;;0.40;0.40;;;16.40;99.90;;;;;;5096793;28;20075;-72
2023/07/24 03:13:16;;;;;;;0.40;0.40;;;16.40;99.90;;;;;;5096822;28;20040;-71
2023/07/24 03:15:41;;;;;;;0.40;0.40;;;16.50;99.90;;;;;;5096604;28;20479;-71
2023/07/24 03:18:07;;;;;;;0.40;0.40;;;16.50;99.90;;;;;;5096187;28;20040;-71
2023/07/24 03:20:32;;;;;;;0.30;0.30;;;16.50;99.90;;;;;;5096282;28;20135;-70
2023/07/24 03:22:58;;;;;;;0.40;0.40;;;16.50;99.90;;;;;;5096421;28;20036;-71
2023/07/24 03:25:24;;;;;;;0.30;0.30;;;16.50;99.90;;;;;;5096430;28;20075;-70
2023/07/24 03:27:49;;;;;;;0.30;0.30;;;16.60;99.90;;;;;;5096372;28;20035;-72
2023/07/24 03:30:15;;;;;;;0.43;0.33;;;16.60;99.90;;;;;;5096216;28;20170;-71
2023/07/24 03:32:40;;;;;;;0.37;0.37;;;16.60;99.90;;;;;;5096322;28;20039;-71
2023/07/24 03:35:07;;;;;;;0.30;0.30;;;16.60;99.90;;;;;;5096216;28;20043;-70
2023/07/24 03:37:34;;;;;;;0.63;0.40;;;16.60;99.90;;;;;;5095095;28;20043;-71
2023/07/24 03:40:00;;;;;;;0.40;0.40;;;16.60;99.90;;;;;;5096069;28;20040;-71
2023/07/24 03:42:28;;;;;;;0.52;0.40;;;16.60;99.90;;;;;;5096102;28;20039;-71
2023/07/24 03:44:54;;;;;;;2.70;0.57;;;16.60;99.90;;;;;;5095678;28;20468;-71
2023/07/24 03:47:20;;;;;;;0.32;0.32;;;16.70;99.90;;;;;;5096207;28;20402;-71
2023/07/24 03:49:45;;;;;;;0.40;0.40;;;16.60;99.90;;;;;;5095827;28;20131;-71
2023/07/24 03:52:11;;;;;;;0.47;0.47;;;16.60;99.90;;;;;;5096338;28;20043;-70
2023/07/24 03:54:37;;;;;;;0.93;0.50;;;16.70;99.90;;;;;;5095568;28;20036;-70
2023/07/24 03:57:03;;;;;;;0.57;0.40;;;16.70;99.90;;;;;;5095769;28;20127;-70
2023/07/24 03:59:30;;;;;;;0.50;0.50;;;16.70;99.90;;;;;;5094754;28;20584;-70
2023/07/24 04:01:56;;;;;;;;;;;16.60;99.90;;;;;;5096063;28;20525;-69
2023/07/24 04:04:21;;;;;;;0.40;0.40;;;16.70;99.90;;;;;;5095371;28;19916;-69
2023/07/24 04:06:47;;;;;;;0.30;0.30;;;16.60;99.90;;;;;;5095594;28;20032;-70
2023/07/24 04:09:15;;;;;;;0.63;0.60;;;16.70;99.90;;;;;;5095498;28;20031;-70
2023/07/24 04:11:42;;;;;;;0.52;0.52;;;16.60;99.90;;;;;;5095405;28;20043;-71
2023/07/24 04:14:08;;;;;;;0.40;0.35;;;16.70;99.90;;;;;;5095483;28;20119;-70
2023/07/24 04:16:34;;;;;;;0.30;0.30;;;16.70;99.90;;;;;;5095528;28;20071;-70
2023/07/24 04:18:59;;;;;;;0.50;0.50;;;16.60;99.90;;;;;;5093789;28;20395;-71
2023/07/24 04:21:25;;;;;;;0.30;0.30;;;16.60;99.90;;;;;;5095247;28;20181;-71
2023/07/24 04:23:50;;;;;;;0.30;0.30;;;16.70;99.90;;;;;;5095509;28;20035;-71
2023/07/24 04:26:16;;;;;;;0.50;0.50;;;16.60;99.90;;;;;;5095240;28;20039;-70
2023/07/24 04:28:42;;;;;;;0.30;0.30;;;16.60;99.90;;;;;;5095115;28;20036;-71
2023/07/24 04:31:07;;;;;;;0.40;0.40;;;16.70;99.90;;;;;;5095059;28;20043;-71
2023/07/24 04:33:33;;;;;;;0.30;0.30;;;16.70;99.90;;;;;;5095196;28;20093;-70
2023/07/24 04:35:59;;;;;;;0.50;0.50;;;16.70;99.90;;;;;;5094913;28;20097;-69
2023/07/24 04:38:24;;;;;;;0.30;0.30;;;16.60;99.90;;;;;;5093542;28;20050;-71
2023/07/24 04:40:50;;;;;;;0.50;0.50;;;16.70;99.90;;;;;;5094878;28;20040;-71
2023/07/24 04:43:15;;;;;;;0.50;0.50;;;16.60;99.90;;;;;;5094857;28;20032;-71
2023/07/24 04:45:41;;;;;;;0.43;0.37;;;16.60;99.90;;;;;;5095076;28;20040;-71
2023/07/24 04:48:07;;;;;;;0.40;0.40;;;16.70;99.90;;;;;;5094594;28;20385;-71
2023/07/24 04:50:32;;;;;;;0.50;0.50;;;16.70;99.90;;;;;;5094659;28;20044;-74
2023/07/24 04:52:58;;;;;;;0.53;0.50;;;16.60;99.90;;;;;;5094668;28;20079;-72
2023/07/24 04:55:24;;;;;;;0.30;0.30;;;16.70;99.90;;;;;;5095073;28;20354;-70
2023/07/24 04:57:50;;;;;;;0.70;0.60;;;16.70;99.90;;;;;;5094647;28;20036;-72
2023/07/24 05:00:16;;;;;;;0.80;0.80;;;16.70;99.90;;;;;;5094592;28;20081;-71
2023/07/24 05:02:42;;;;;;;0.30;0.30;;;16.70;99.90;;;;;;5094432;28;20083;-70
2023/07/24 05:05:08;;;;;;;0.30;0.30;;;16.70;99.90;;;;;;5094460;28;20039;-69
2023/07/24 05:07:33;;;;;;;0.40;0.40;;;16.70;99.90;;;;;;5094348;28;20047;-70
2023/07/24 05:09:59;;;;;;;0.33;0.33;;;16.70;99.90;;;;;;5093520;28;20040;-69
2023/07/24 05:12:25;;;;;;;0.30;0.30;;;16.70;99.90;;;;;;5094499;28;20491;-70
2023/07/24 05:14:50;;;;;;;0.40;0.40;;;16.70;99.90;;;;;;5094322;28;20483;-70
2023/07/24 05:17:16;;;;;;;0.37;0.37;;;16.70;99.90;;;;;;5094444;28;20044;-69
2023/07/24 05:19:42;;;;;;;0.43;0.43;;;16.70;99.90;;;;;;5094148;28;20048;-69
2023/07/24 05:22:10;;;;;;;0.50;0.50;;;16.70;99.90;;;;;;5094181;28;20408;-69
2023/07/24 05:24:36;;;;;;;0.43;0.43;;;16.70;99.90;;;;;;5094202;28;20044;-69
2023/07/24 05:27:02;;;;;;;0.38;0.38;;;16.70;99.90;;;;;;5094164;28;20130;-69
2023/07/24 05:29:28;;;;;;;1.13;0.70;;;16.70;99.90;;;;;;5094135;28;20044;-69
2023/07/24 05:31:53;;;;;;;1.03;0.83;;;16.70;99.90;;;;;;5093854;28;20090;-70
2023/07/24 05:34:19;;;;;;;0.40;0.40;;;16.70;99.90;;;;;;5093730;28;20482;-70
2023/07/24 05:36:45;;;;;;;0.50;0.50;;;16.70;99.90;;;;;;5093880;28;20050;-69
2023/07/24 05:39:10;;;;;;;0.50;0.50;;;16.70;99.90;;;;;;5093998;28;20039;-69
2023/07/24 05:41:36;;;;;;;0.30;0.30;;;16.70;99.90;;;;;;5093804;28;20510;-69
2023/07/24 05:44:01;;;;;;;0.90;0.63;;;16.70;99.90;;;;;;5094179;28;20082;-70
2023/07/24 05:46:27;;;;;;;0.30;0.30;;;16.80;99.90;;;;;;5093809;28;20043;-70
2023/07/24 05:48:53;;;;;;;0.60;0.50;;;16.80;99.90;;;;;;5093864;28;20496;-68
2023/07/24 05:51:18;;;;;;;0.87;0.60;;;16.80;99.90;;;;;;5093716;28;20036;-73
2023/07/24 05:53:44;;;;;;;0.97;0.60;;;16.90;99.90;;;;;;5094523;28;20410;-73
2023/07/24 05:56:09;;;;;;;1.10;0.90;;;16.90;99.90;;;;;;5093665;28;20480;-70
2023/07/24 05:58:35;;;;;;;0.90;0.77;;;17.00;99.90;;;;;;5093664;28;20346;-70
2023/07/24 06:01:01;;;;;;;0.40;0.40;;;17.10;99.90;;;;;;5093929;28;20051;-69
2023/07/24 06:03:26;;;;;;;0.43;0.43;;;17.10;99.90;;;;;;5093391;28;20522;-71
2023/07/24 06:05:54;;;;;;;0.70;0.50;;;17.20;99.90;;;;;;5093300;28;20036;-72
2023/07/24 06:08:20;;;;;;;0.40;0.40;;;17.30;99.90;;;;;;5093628;28;20048;-71
2023/07/24 06:10:50;;;;;;;0.95;0.77;;;17.40;99.90;;;;;;5093580;28;20413;-71
2023/07/24 06:13:16;;;;;;;0.30;0.30;;;17.40;99.90;;;;;;5093506;28;20039;-72
2023/07/24 06:15:42;;;;;;;;;;;17.40;99.90;;;;;;5092607;28;20084;-71
2023/07/24 06:18:08;;;;;;;0.47;0.40;;;17.50;99.90;;;;;;5093596;28;20343;-72
2023/07/24 06:20:33;;;;;;;0.67;0.50;;;17.50;99.90;;;;;;5093330;28;20040;-71
2023/07/24 06:22:59;;;;;;;0.47;0.47;;;17.60;99.90;;;;;;5094615;28;20040;-71
2023/07/24 06:25:25;;;;;;;0.50;0.50;;;17.60;99.90;;;;;;5097563;28;20044;-70
2023/07/24 06:27:50;;;;;;;0.50;0.50;;;17.60;99.90;;;;;;5097837;28;20383;-72
2023/07/24 06:30:16;;;;;;;0.67;0.67;;;17.60;99.90;;;;;;5097770;28;20036;-70
2023/07/24 06:32:42;;;;;;;0.50;0.50;;;17.60;99.90;;;;;;5097385;28;20117;-70
2023/07/24 06:35:07;;;;;;;0.43;0.43;;;17.70;99.90;;;;;;5097645;28;20044;-71
2023/07/24 06:37:33;;;;;;;0.40;0.40;;;17.70;99.90;;;;;;5098046;28;20349;-72
2023/07/24 06:39:59;;;;;;;0.50;0.50;;;17.90;99.90;;;;;;5097653;28;20036;-73
2023/07/24 06:42:24;;;;;;;0.50;0.50;;;18.00;99.90;;;;;;5097228;28;20460;-73
2023/07/24 06:44:50;;;;;;;0.50;0.50;;;18.20;99.90;;;;;;5097172;28;20047;-73
2023/07/24 06:47:15;;;;;;;1.00;0.80;;;18.20;99.90;;;;;;5097085;28;20056;-73
2023/07/24 06:49:41;;;;;;;0.40;0.40;;;18.40;99.90;;;;;;5095444;28;20047;-73
2023/07/24 06:52:07;;;;;;;1.40;0.83;;;18.50;99.90;;;;;;5088606;28;20033;-73
2023/07/24 06:54:32;;;;;;;0.43;0.40;;;18.60;99.90;;;;;;5086058;28;20087;-72
2023/07/24 06:56:58;;;;;;;0.40;0.40;;;18.60;99.90;;;;;;5095368;28;20051;-73
2023/07/24 06:59:24;;;;;;;0.63;0.50;;;18.60;99.90;;;;;;5096595;28;20389;-73
2023/07/24 07:01:49;;;;;;;0.70;0.70;;;18.70;99.90;;;;;;5096906;28;20123;-73
2023/07/24 07:04:16;;;;;;;1.07;0.97;;;18.70;99.90;;;;;;5096405;28;20391;-74
2023/07/24 07:06:41;;;;;;;;;;;18.70;99.90;;;;;;5096812;28;20039;-74
2023/07/24 07:09:07;;;;;;;0.45;0.45;;;18.80;99.90;;;;;;5096648;28;20347;-73
2023/07/24 07:11:33;;;;;;;0.60;0.60;;;18.80;99.90;;;;;;5096497;28;20035;-73
2023/07/24 07:13:58;;;;;;;0.40;0.40;;;18.80;99.90;;;;;;5096510;28;20119;-72
2023/07/24 07:16:24;;;;;;;0.40;0.40;;;18.80;99.90;;;;;;5095287;28;20085;-72
2023/07/24 07:18:49;;;;;;;0.30;0.30;;;18.80;99.90;;;;;;5096485;28;20055;-72
2023/07/24 07:21:15;;;;;;;0.50;0.50;;;18.80;99.90;;;;;;5096159;28;20044;-73
2023/07/24 07:23:41;;;;;;;0.40;0.40;;;18.80;99.90;;;;;;5095177;28;20376;-73
2023/07/24 07:26:06;;;;;;;0.77;0.60;;;18.80;99.90;;;;;;5096466;28;20039;-76
2023/07/24 07:28:32;;;;;;;0.57;0.57;;;18.70;99.90;;;;;;5095845;28;20036;-76
2023/07/24 07:30:58;;;;;;;0.33;0.33;;;18.80;99.90;;;;;;5096160;28;20036;-77
2023/07/24 07:33:24;;;;;;;0.87;0.60;;;18.70;99.90;;;;;;5096141;28;20521;-76
2023/07/24 07:35:50;;;;;;;0.40;0.40;;;18.80;99.90;;;;;;5094209;28;20044;-76
2023/07/24 07:38:16;;;;;;;0.50;0.50;;;18.80;99.90;;;;;;5095998;28;20487;-75
2023/07/24 07:40:41;;;;;;;0.60;0.50;;;19.00;99.90;;;;;;5095924;28;20285;-76
2023/07/24 07:43:07;;;;;;;0.30;0.30;;;19.20;99.90;;;;;;5096035;28;20043;-75
2023/07/24 07:45:33;;;;;;;0.93;0.47;;;19.30;99.90;;;;;;5095626;28;20040;-75
2023/07/24 07:47:59;;;;;;;1.80;0.97;;;19.50;99.90;;;;;;5094733;28;20138;-75
2023/07/24 07:50:25;;;;;;;0.80;0.80;;;19.60;99.90;;;;;;5095513;28;20380;-75
2023/07/24 07:52:51;;;;;;;0.80;0.70;;;19.70;99.90;;;;;;5095759;28;20051;-77
2023/07/24 07:55:17;;;;;;;;;;;19.80;99.90;;;;;;5096034;28;20042;-74
2023/07/24 07:57:43;;;;;;;2.22;1.30;;;19.90;99.90;;;;;;5095631;28;19922;-75
2023/07/24 08:00:09;;;;;;;0.80;0.60;;;20.00;99.90;;;;;;5095164;28;20040;-72
2023/07/24 08:02:35;;;;;;;2.85;0.60;;;20.00;99.90;;;;;;5095701;28;20044;-71
2023/07/24 08:05:00;;;;;;;0.90;0.43;;;20.10;99.90;;;;;;5095243;28;20063;-71
2023/07/24 08:07:26;;;;;;;0.50;0.50;;;20.10;99.90;;;;;;5093947;28;20122;-71
2023/07/24 08:09:52;;;;;;;0.87;0.60;;;20.10;99.90;;;;;;5095310;28;20464;-71
2023/07/24 08:12:18;;;;;;;0.93;0.90;;;20.20;99.90;;;;;;5095247;28;20036;-71
2023/07/24 08:14:44;;;;;;;0.60;0.60;;;20.20;99.90;;;;;;5094895;28;20040;-71
2023/07/24 08:17:09;;;;;;;0.43;0.40;;;20.30;99.90;;;;;;5095048;28;20089;-71
2023/07/24 08:19:35;;;;;;;0.67;0.67;;;20.30;99.90;;;;;;5095304;28;20093;-71
2023/07/24 08:22:01;;;;;;;0.70;0.70;;;20.50;99.90;;;;;;5094787;28;20044;-71
2023/07/24 08:24:26;;;;;;;1.80;0.40;;;20.70;99.90;;;;;;5094972;28;20078;-71
2023/07/24 08:26:52;;;;;;;0.83;0.83;;;20.90;99.90;;;;;;5094945;28;20082;-71
2023/07/24 08:29:17;;;;;;;0.50;0.50;;;21.10;99.90;;;;;;5094779;28;20039;-71
2023/07/24 08:31:43;;;;;;;2.03;1.13;;;21.30;99.90;;;;;;5093628;28;20032;-71
2023/07/24 08:34:09;;;;;;;0.50;0.50;;;21.40;99.90;;;;;;5094589;28;20035;-71
2023/07/24 08:36:34;;;;;;;0.80;0.80;;;21.50;99.90;;;;;;5094590;28;20047;-71
2023/07/24 08:39:00;;;;;;;0.43;0.43;;;21.70;99.90;;;;;;5094870;28;20472;-71
2023/07/24 08:41:25;;;;;;;0.50;0.50;;;21.80;99.90;;;;;;5094746;28;20442;-71
2023/07/24 08:43:52;;;;;;;0.40;0.40;;;21.70;99.90;;;;;;5094731;28;20044;-71
2023/07/24 08:46:18;;;;;;;1.45;0.50;;;21.60;99.90;;;;;;5094031;28;20032;-71
2023/07/24 08:48:44;;;;;;;0.40;0.40;;;21.50;99.90;;;;;;5094338;28;20085;-71
2023/07/24 08:51:12;;;;;;;0.93;0.60;;;21.40;99.90;;;;;;5094047;28;20048;-72
2023/07/24 08:53:40;;;;;;;0.30;0.30;;;21.40;99.90;;;;;;5094618;28;20063;-72
2023/07/24 08:56:08;;;;;;;0.68;0.50;;;21.40;99.90;;;;;;5094551;28;20044;-72
2023/07/24 08:58:34;;;;;;;0.63;0.63;;;21.40;99.90;;;;;;5094263;28;20086;-73
2023/07/24 09:01:01;;;;;;;0.50;0.50;;;21.50;99.90;;;;;;5094452;28;20127;-73
2023/07/24 09:03:27;;;;;;;0.30;0.30;;;21.40;99.90;;;;;;5094186;28;20478;-72
2023/07/24 09:05:53;;;;;;;0.52;0.52;;;21.50;99.90;;;;;;5093904;28;20406;-71
2023/07/24 09:08:32;;;;;;;1.07;0.70;;;21.60;99.90;;;;;;5094298;28;20089;-72
2023/07/24 09:11:02;;;;;;;0.32;0.30;;;21.70;99.90;;;;;;5094136;28;20543;-72
2023/07/24 09:13:29;;;;;;;0.40;0.40;;;21.80;99.90;;;;;;5093058;28;20097;-72
2023/07/24 09:15:55;;;;;;;0.70;0.50;;;21.80;99.90;;;;;;5093976;28;20044;-72
2023/07/24 09:18:21;;;;;;;0.20;0.20;;;21.70;99.90;;;;;;5093669;28;20044;-72
2023/07/24 09:20:47;;;;;;;0.35;0.35;;;21.60;99.90;;;;;;5094116;28;20044;-72
2023/07/24 09:23:14;;;;;;;0.30;0.30;;;21.60;99.90;;;;;;5094006;28;20040;-72
2023/07/24 09:25:40;;;;;;;;;;;21.50;99.90;;;;;;5094192;28;20032;-72
2023/07/24 09:28:24;;;;;;;0.40;0.40;;;21.40;99.90;;;;;;5093680;28;19922;-72
2023/07/24 09:30:55;;;;;;;0.50;0.50;;;21.40;99.90;;;;;;5092630;28;20072;-72
2023/07/24 09:33:43;;;;;;;0.45;0.45;;;21.50;99.90;;;;;;5093860;28;20085;-72
2023/07/24 09:36:10;;;;;;;0.50;0.50;;;21.60;99.90;;;;;;5093568;28;20439;-72
2023/07/24 09:38:40;;;;;;;0.35;0.35;;;21.80;99.90;;;;;;5093640;28;20075;-72
2023/07/24 09:41:06;;;;;;;0.50;0.50;;;22.00;99.90;;;;;;5093823;28;20031;-72
2023/07/24 09:43:35;;;;;;;0.40;0.40;;;22.20;99.90;;;;;;5093508;28;20055;-72
2023/07/24 09:46:03;;;;;;;0.50;0.50;;;22.50;99.90;;;;;;5093469;28;20044;-72
2023/07/24 09:48:30;;;;;;;0.40;0.40;;;22.70;99.90;;;;;;5093464;28;20044;-72
2023/07/24 09:50:59;;;;;;;0.30;0.30;;;22.80;99.90;;;;;;5093616;28;20058;-72
2023/07/24 09:53:48;;;;;;;0.20;0.20;;;22.80;99.90;;;;;;5093444;28;20058;-73
2023/07/24 09:56:15;;;;;;;0.40;0.40;;;22.70;99.90;;;;;;5093638;28;20033;-72
2023/07/24 09:58:40;;;;;;;0.40;0.40;;;22.80;99.90;;;;;;5092693;28;20044;-72
2023/07/24 10:01:08;;;;;;;1.03;0.50;;;22.60;99.90;;;;;;5093393;28;20495;-70
2023/07/24 10:03:54;;;;;;;0.40;0.40;;;22.60;99.90;;;;;;5093530;28;20047;-71
2023/07/24 10:06:21;;;;;;;0.65;0.60;;;22.60;99.90;;;;;;5092979;28;20047;-71
2023/07/24 10:08:47;;;;;;;;;;;22.70;99.90;;;;;;5093879;28;20036;-73
2023/07/24 10:11:14;;;;;;;0.60;0.60;;;22.70;99.90;;;;;;5093365;28;19977;-72
2023/07/24 10:13:41;;;;;;;1.35;0.60;;;22.60;99.90;;;;;;5093033;28;20048;-71
2023/07/24 10:16:07;;;;;;;0.40;0.40;;;22.70;99.90;;;;;;5093211;28;20118;-72
2023/07/24 10:18:35;;;;;;;1.27;0.50;;;22.70;99.90;;;;;;5093112;28;20129;-72
2023/07/24 10:21:06;;;;;;;0.30;0.30;;;22.80;99.90;;;;;;5093230;28;20468;-71
2023/07/24 10:23:43;;;;;;;1.23;0.63;;;22.80;99.90;;;;;;5093292;28;20519;-71
2023/07/24 10:26:09;;;;;;;0.52;0.52;;;22.90;99.90;;;;;;5092061;28;20434;-74
2023/07/24 10:28:41;;;;;;;0.47;0.45;;;22.90;99.90;;;;;;5092971;28;20097;-75
2023/07/24 10:31:28;;;;;;;0.57;0.57;;;23.00;99.90;;;;;;5093340;28;20040;-75
2023/07/24 10:33:55;;;;;;;0.40;0.40;;;23.10;99.90;;;;;;5092731;28;20518;-73
2023/07/24 10:36:22;;;;;;;0.52;0.52;;;23.20;99.90;;;;;;5092920;28;20046;-74
2023/07/24 10:38:54;;;;;;;1.10;0.98;;;23.30;99.90;;;;;;5093187;28;20047;-72
2023/07/24 10:41:19;;;;;;;0.47;0.30;;;23.30;99.90;;;;;;5093128;28;20036;-74
2023/07/24 10:43:50;;;;;;;0.30;0.30;;;23.30;99.90;;;;;;5093036;28;20051;-74
2023/07/24 10:46:18;;;;;;;0.50;0.50;;;23.40;99.90;;;;;;5092686;28;20048;-72
2023/07/24 10:48:47;;;;;;;0.30;0.30;;;23.50;99.90;;;;;;5093079;28;20040;-73
2023/07/24 10:51:14;;;;;;;0.85;0.50;;;23.60;99.90;;;;;;5091837;28;20050;-75
2023/07/24 10:53:45;;;;;;;0.30;0.30;;;23.60;99.90;;;;;;5093066;28;20128;-76
2023/07/24 10:56:11;;;;;;;0.55;0.55;;;23.60;99.90;;;;;;5093190;28;20040;-74
2023/07/24 10:58:37;;;;;;;0.50;0.50;;;23.60;99.90;;;;;;5092819;28;20127;-75
2023/07/24 11:01:06;;;;;;;1.17;0.60;;;23.60;99.90;;;;;;5092702;28;20105;-74
2023/07/24 11:03:35;;;;;;;0.30;0.30;;;23.60;99.90;;;;;;5093061;28;20410;-74
2023/07/24 11:06:02;;;;;;;0.52;0.40;;;23.70;99.90;;;;;;5092982;28;20043;-74
2023/07/24 11:08:28;;;;;;;0.73;0.70;;;23.70;99.90;;;;;;5093154;28;20495;-75
2023/07/24 11:10:56;;;;;;;0.43;0.43;;;23.90;99.90;;;;;;5096351;28;20028;-74
2023/07/24 11:13:24;;;;;;;0.40;0.40;;;24.00;99.90;;;;;;5096055;28;20392;-76
2023/07/24 11:15:51;;;;;;;0.40;0.40;;;24.10;99.90;;;;;;5096608;28;20093;-75
2023/07/24 11:18:20;;;;;;;0.30;0.30;;;24.20;99.90;;;;;;5096315;28;20052;-73
2023/07/24 11:20:55;;;;;;;0.20;0.20;;;24.30;99.90;;;;;;5096614;28;20040;-74
2023/07/24 11:23:21;;;;;;;0.40;0.40;;;24.30;99.90;;;;;;5096003;28;20487;-73
2023/07/24 11:25:49;;;;;;;0.47;0.45;;;24.30;99.90;;;;;;5095984;28;20376;-72
2023/07/24 11:28:15;;;;;;;0.60;0.50;;;24.40;99.90;;;;;;5096004;28;20044;-73
2023/07/24 11:30:42;;;;;;;0.23;0.23;;;24.40;99.90;;;;;;5096288;28;20042;-75
2023/07/24 11:33:10;;;;;;;0.40;0.40;;;24.40;99.90;;;;;;5096253;28;20044;-73
2023/07/24 11:35:38;;;;;;;0.30;0.30;;;24.40;99.90;;;;;;5096513;28;20093;-73
2023/07/24 11:38:04;;;;;;;0.52;0.50;;;24.30;99.90;;;;;;5096187;28;20047;-74
2023/07/24 11:40:41;;;;;;;0.27;0.27;;;24.10;99.90;;;;;;5095900;28;20452;-73
2023/07/24 11:43:17;;;;;;;;;;;23.90;99.90;;;;;;5096442;28;20339;-73
2023/07/24 11:45:43;;;;;;;1.30;1.10;;;23.80;99.90;;;;;;5095728;28;19942;-73
2023/07/24 11:48:11;;;;;;;1.42;0.35;;;23.70;99.90;;;;;;5095792;28;20127;-74
2023/07/24 11:50:47;;;;;;;0.30;0.30;;;23.60;99.90;;;;;;5095493;28;20081;-74
2023/07/24 11:53:21;;;;;;;0.43;0.43;;;23.50;99.90;;;;;;5095724;28;20048;-74
2023/07/24 11:55:47;;;;;;;0.25;0.25;;;23.50;99.90;;;;;;5095471;28;20120;-70
2023/07/24 11:58:14;;;;;;;;;;;23.50;99.90;;;;;;5096035;28;20345;-71
2023/07/24 12:00:40;;;;;;;0.30;0.30;;;23.50;99.90;;;;;;5095254;28;19927;-71
2023/07/24 12:03:07;;;;;;;0.40;0.40;;;23.60;99.90;;;;;;5095617;28;20039;-71
2023/07/24 12:05:40;;;;;;;0.82;0.80;;;23.60;99.90;;;;;;5095341;28;20074;-73
2023/07/24 12:08:06;;;;;;;0.30;0.30;;;23.60;99.90;;;;;;5095433;28;20048;-71
2023/07/24 12:10:37;;;;;;;0.47;0.40;;;23.60;99.90;;;;;;5094888;28;20036;-76
2023/07/24 12:13:03;;;;;;;0.30;0.30;;;23.60;99.90;;;;;;5095471;28;20076;-78
2023/07/24 12:15:28;;;;;;;0.40;0.40;;;23.70;99.90;;;;;;5095291;28;20085;-73
2023/07/24 12:17:54;;;;;;;0.60;0.60;;;23.60;99.90;;;;;;5093836;28;20044;-74
2023/07/24 12:20:20;;;;;;;0.20;0.20;;;23.60;99.90;;;;;;5094335;28;20044;-69
2023/07/24 12:22:47;;;;;;;0.25;0.25;;;23.60;99.90;;;;;;5095170;28;20032;-71
2023/07/24 12:25:12;;;;;;;0.30;0.30;;;23.60;99.90;;;;;;5094898;28;20040;-71
2023/07/24 12:27:39;;;;;;;0.30;0.30;;;23.70;99.90;;;;;;5095189;28;20040;-71
2023/07/24 12:30:06;;;;;;;0.40;0.40;;;23.70;99.90;;;;;;5094637;28;20478;-75
2023/07/24 12:32:31;;;;;;;0.30;0.30;;;23.80;99.90;;;;;;5094819;28;20043;-74
2023/07/24 12:34:57;;;;;;;0.97;0.40;;;23.90;99.90;;;;;;5094612;28;20036;-72
2023/07/24 12:37:23;;;;;;;0.30;0.30;;;23.90;99.90;;;;;;5094862;28;20120;-74
2023/07/24 12:39:49;;;;;;;0.43;0.43;;;23.80;99.90;;;;;;5094614;28;20048;-72
2023/07/24 12:42:15;;;;;;;1.00;0.65;;;23.70;99.90;;;;;;5094464;28;20035;-76
2023/07/24 12:44:41;;;;;;;;;;;23.70;99.90;;;;;;5095183;28;20051;-76
2023/07/24 12:47:07;;;;;;;0.47;0.40;;;23.70;99.90;;;;;;5094487;28;20380;-76